Time;durP1;ratioP1;P1;durP2;ratioP2;P2;SDS_P1;SDS_P2;PMS_P1;PMS_P2;Temp;Humidity;BMP_temperature;BMP_pressure;BME280_temperature;BME280_humidity;BME280_pressure;Samples;Min_cycle;Max_cycle;Signal;HPM_P1;HPM_P2
2024/01/25 00:00:03;;;;;;;;;;;6.70;99.90;;;;;;5034775;28;20332;-72
2024/01/25 00:02:29;;;;;;;;;;;6.40;99.90;;;;;;5035149;28;19932;-72
2024/01/25 00:04:54;;;;;;;;;;;6.40;99.90;;;;;;5034884;28;19925;-72
2024/01/25 00:07:20;;;;;;;;;;;6.40;99.90;;;;;;5034602;28;19925;-72
2024/01/25 00:09:45;;;;;;;;;;;6.40;99.90;;;;;;5034551;28;19929;-72
2024/01/25 00:12:11;;;;;;;;;;;6.80;99.90;;;;;;5033523;28;19983;-72
2024/01/25 00:14:36;;;;;;;;;;;6.40;99.90;;;;;;5027808;28;19965;-72
2024/01/25 00:17:02;;;;;;;;;;;6.40;99.90;;;;;;5014423;28;19936;-72
2024/01/25 00:19:27;;;;;;;;;;;6.30;99.90;;;;;;5014299;28;20032;-73
2024/01/25 00:21:53;;;;;;;;;;;6.30;99.90;;;;;;5014856;28;19933;-72
2024/01/25 00:24:18;;;;;;;;;;;6.40;99.90;;;;;;5019158;28;19929;-72
2024/01/25 00:26:44;;;;;;;;;;;6.40;99.90;;;;;;5033665;28;20379;-73
2024/01/25 00:29:09;;;;;;;;;;;6.30;99.90;;;;;;5034432;28;19987;-72
2024/01/25 00:31:35;;;;;;;;;;;6.70;99.90;;;;;;5033782;28;20050;-72
2024/01/25 00:34:01;;;;;;;;;;;6.30;99.90;;;;;;5033516;28;19925;-73
2024/01/25 00:36:27;;;;;;;;;;;6.30;99.90;;;;;;5034721;28;20381;-72
2024/01/25 00:38:53;;;;;;;;;;;6.20;99.90;;;;;;5033489;28;19925;-72
2024/01/25 00:41:21;;;;;;;;;;;6.20;99.90;;;;;;5019030;28;20372;-72
2024/01/25 00:43:47;;;;;;;;;;;6.20;99.90;;;;;;5030056;28;19933;-72
2024/01/25 00:46:13;;;;;;;;;;;6.20;99.90;;;;;;5013064;28;19921;-72
2024/01/25 00:48:42;;;;;;;;;;;6.20;99.90;;;;;;5015657;28;19926;-72
2024/01/25 00:51:13;;;;;;;;;;;6.10;99.90;;;;;;5014004;28;19929;-72
2024/01/25 00:53:38;;;;;;;;;;;6.10;99.90;;;;;;5012547;28;19929;-72
2024/01/25 00:56:04;;;;;;;;;;;6.10;99.90;;;;;;5014021;28;19925;-72
2024/01/25 00:58:29;;;;;;;;;;;6.10;99.90;;;;;;5014223;28;19967;-72
2024/01/25 01:00:55;;;;;;;;;;;6.10;99.90;;;;;;5014837;28;19929;-72
2024/01/25 01:03:21;;;;;;;;;;;6.10;99.90;;;;;;5015088;28;19979;-72
2024/01/25 01:05:46;;;;;;;;;;;6.10;99.90;;;;;;5014000;28;19950;-72
2024/01/25 01:08:12;;;;;;;;;;;6.00;99.90;;;;;;5012961;28;19979;-72
2024/01/25 01:10:38;;;;;;;;;;;6.00;99.90;;;;;;5015131;28;20363;-72
2024/01/25 01:13:03;;;;;;;;;;;6.00;99.90;;;;;;5013713;28;19948;-73
2024/01/25 01:15:29;;;;;;;;;;;6.00;99.90;;;;;;5021065;28;20039;-72
2024/01/25 01:17:54;;;;;;;;;;;5.90;99.90;;;;;;5032257;28;20019;-72
2024/01/25 01:20:20;;;;;;;;;;;6.70;99.90;;;;;;5033132;28;19925;-72
2024/01/25 01:22:45;;;;;;;;;;;6.10;99.90;;;;;;5033061;28;19960;-72
2024/01/25 01:25:11;;;;;;;;;;;5.90;99.90;;;;;;5036433;28;19929;-72
2024/01/25 01:27:36;;;;;;;;;;;5.90;99.90;;;;;;5033617;28;19933;-72
2024/01/25 01:30:02;;;;;;;;;;;6.90;99.90;;;;;;5031921;28;19928;-73
2024/01/25 01:32:28;;;;;;;;;;;5.80;99.90;;;;;;5033364;28;20300;-72
2024/01/25 01:34:53;;;;;;;;;;;5.80;99.90;;;;;;5022879;28;19926;-72
2024/01/25 01:37:19;;;;;;;;;;;5.80;99.90;;;;;;5013192;28;19929;-72
2024/01/25 01:39:44;;;;;;;;;;;5.80;99.90;;;;;;5014488;28;20035;-72
2024/01/25 01:42:10;;;;;;;;;;;5.80;99.90;;;;;;5012247;28;19925;-72
2024/01/25 01:44:35;;;;;;;;;;;6.10;99.90;;;;;;5013278;28;19932;-72
2024/01/25 01:47:01;;;;;;;;;;;5.80;99.90;;;;;;5013210;28;19952;-72
2024/01/25 01:49:26;;;;;;;;;;;5.80;99.90;;;;;;5012576;28;19926;-72
2024/01/25 01:51:52;;;;;;;;;;;6.00;99.90;;;;;;5013202;28;19926;-72
2024/01/25 01:54:18;;;;;;;;;;;5.80;99.90;;;;;;5012492;28;19983;-72
2024/01/25 01:56:44;;;;;;;;;;;6.40;99.90;;;;;;5012673;28;19921;-72
2024/01/25 01:59:11;;;;;;;;;;;5.80;99.90;;;;;;5012882;28;19926;-72
2024/01/25 02:01:37;;;;;;;;;;;5.80;99.90;;;;;;5013233;28;19921;-72
2024/01/25 02:04:03;;;;;;;;;;;5.80;99.90;;;;;;5012479;28;19932;-72
2024/01/25 02:06:29;;;;;;;;;;;5.80;99.90;;;;;;5032021;28;20043;-72
2024/01/25 02:08:58;;;;;;;;;;;5.80;99.90;;;;;;5033744;28;19968;-72
2024/01/25 02:11:24;;;;;;;;;;;7.30;99.90;;;;;;5032039;28;20296;-73
2024/01/25 02:13:49;;;;;;;;;;;5.80;99.90;;;;;;5032151;28;19926;-72
2024/01/25 02:16:15;;;;;;;;;;;6.30;99.90;;;;;;5032433;28;19925;-72
2024/01/25 02:18:41;;;;;;;;;;;5.70;99.90;;;;;;5031775;28;20376;-72
2024/01/25 02:21:06;;;;;;;;;;;6.30;99.90;;;;;;5032426;28;20296;-72
2024/01/25 02:23:32;;;;;;;;;;;6.00;99.90;;;;;;5032138;28;19926;-73
2024/01/25 02:25:57;;;;;;;;;;;5.60;99.90;;;;;;5012355;28;20018;-72
2024/01/25 02:28:23;;;;;;;;;;;5.60;99.90;;;;;;5013312;28;20277;-72
2024/01/25 02:30:48;;;;;;;;;;;5.60;99.90;;;;;;5012445;28;20391;-72
2024/01/25 02:33:14;;;;;;;;;;;6.10;99.90;;;;;;5011559;28;19925;-72
2024/01/25 02:35:39;;;;;;;;;;;5.80;99.90;;;;;;5012226;28;19933;-72
2024/01/25 02:38:05;;;;;;;;;;;6.10;99.90;;;;;;5012044;28;20274;-72
2024/01/25 02:40:30;;;;;;;;;;;5.80;99.90;;;;;;5011427;28;19925;-72
2024/01/25 02:42:56;;;;;;;;;;;5.50;99.90;;;;;;5012409;28;19929;-72
2024/01/25 02:45:22;;;;;;;;;;;5.60;99.90;;;;;;5026811;28;19980;-72
2024/01/25 02:47:47;;;;;;;;;;;5.50;99.90;;;;;;5031943;28;20387;-72
2024/01/25 02:50:13;;;;;;;;;;;5.50;99.90;;;;;;5031806;28;19979;-72
2024/01/25 02:52:38;;;;;;;;;;;5.50;99.90;;;;;;5031314;28;20353;-72
2024/01/25 02:55:04;;;;;;;;;;;5.50;99.90;;;;;;5031595;28;19932;-73
2024/01/25 02:57:31;;;;;;;;;;;5.40;99.90;;;;;;5031748;28;19932;-73
2024/01/25 02:59:56;;;;;;;;;;;5.40;99.90;;;;;;5030944;28;19925;-72
2024/01/25 03:02:22;;;;;;;;;;;5.40;99.90;;;;;;5031695;28;20369;-73
2024/01/25 03:04:48;;;;;;;;;;;5.70;99.90;;;;;;5032759;28;19929;-73
2024/01/25 03:07:13;;;;;;;;;;;5.40;99.90;;;;;;5030463;28;20008;-73
2024/01/25 03:09:39;;;;;;;;;;;5.40;99.90;;;;;;5031739;28;19925;-73
2024/01/25 03:12:04;;;;;;;;;;;5.40;99.90;;;;;;5031244;28;20278;-73
2024/01/25 03:14:30;;;;;;;;;;;5.30;99.90;;;;;;5030682;28;20032;-73
2024/01/25 03:16:56;;;;;;;;;;;5.60;99.90;;;;;;5031168;28;20388;-73
2024/01/25 03:19:24;;;;;;;;;;;5.30;99.90;;;;;;5031077;28;19925;-74
2024/01/25 03:21:49;;;;;;;;;;;5.60;99.90;;;;;;5030935;28;19925;-73
2024/01/25 03:24:15;;;;;;;;;;;5.70;99.90;;;;;;5025008;28;20025;-73
2024/01/25 03:26:40;;;;;;;;;;;5.20;99.90;;;;;;5030546;28;19925;-73
2024/01/25 03:29:06;;;;;;;;;;;6.00;99.90;;;;;;5031807;28;19925;-73
2024/01/25 03:31:31;;;;;;;;;;;5.20;99.90;;;;;;5031561;28;19952;-73
2024/01/25 03:33:57;;;;;;;;;;;5.10;99.90;;;;;;5030730;28;19931;-73
2024/01/25 03:36:22;;;;;;;;;;;5.10;99.90;;;;;;5030169;28;20016;-73
2024/01/25 03:38:48;;;;;;;;;;;5.10;99.90;;;;;;5031480;28;19951;-73
2024/01/25 03:41:13;;;;;;;;;;;5.10;99.90;;;;;;5031777;28;20320;-73
2024/01/25 03:43:39;;;;;;;;;;;5.10;99.90;;;;;;5030560;28;19940;-73
2024/01/25 03:46:04;;;;;;;;;;;5.10;99.90;;;;;;5012213;28;19925;-73
2024/01/25 03:48:30;;;;;;;;;;;5.10;99.90;;;;;;5012258;28;19971;-73
2024/01/25 03:50:56;;;;;;;;;;;5.40;99.90;;;;;;5011030;28;19925;-73
2024/01/25 03:53:24;;;;;;;;;;;5.00;99.90;;;;;;5012178;28;19926;-73
2024/01/25 03:55:50;;;;;;;;;;;5.00;99.90;;;;;;5012819;28;19926;-73
2024/01/25 03:58:19;;;;;;;;;;;5.70;99.90;;;;;;5019750;28;20293;-73
2024/01/25 04:00:44;;;;;;;;;;;5.00;99.90;;;;;;5023827;28;19925;-73
2024/01/25 04:03:10;;;;;;;;;;;5.00;99.90;;;;;;5063280;28;20261;-73
2024/01/25 04:05:35;;;;;;;;;;;5.00;99.90;;;;;;5064190;28;20250;-73
2024/01/25 04:08:01;;;;;;;;;;;5.00;99.90;;;;;;5031557;28;19936;-73
2024/01/25 04:10:26;;;;;;;;;;;4.90;99.90;;;;;;5030011;28;20054;-72
2024/01/25 04:12:52;;;;;;;;;;;5.40;99.90;;;;;;5031508;28;20366;-73
2024/01/25 04:15:17;;;;;;;;;;;4.90;99.90;;;;;;5030602;28;20015;-73
2024/01/25 04:17:43;;;;;;;;;;;5.80;99.90;;;;;;5031851;28;19925;-73
2024/01/25 04:20:09;;;;;;;;;;;4.90;99.90;;;;;;5030553;28;19959;-72
2024/01/25 04:22:35;;;;;;;;;;;4.80;99.90;;;;;;5031151;28;20288;-72
2024/01/25 04:25:01;;;;;;;;;;;5.70;99.90;;;;;;5029561;28;19930;-73
2024/01/25 04:27:26;;;;;;;;;;;4.80;99.90;;;;;;5032248;28;19925;-73
2024/01/25 04:29:52;;;;;;;;;;;4.80;99.90;;;;;;5035684;28;20328;-72
2024/01/25 04:32:17;;;;;;;;;;;4.80;99.90;;;;;;5033295;28;19929;-72
2024/01/25 04:34:43;;;;;;;;;;;4.80;99.90;;;;;;5035433;28;19980;-73
2024/01/25 04:37:09;;;;;;;;;;;4.80;99.90;;;;;;5034292;28;19929;-72
2024/01/25 04:39:34;;;;;;;;;;;4.80;99.90;;;;;;5033932;28;19975;-72
2024/01/25 04:42:00;;;;;;;;;;;4.70;99.90;;;;;;5033695;28;19926;-73
2024/01/25 04:44:25;;;;;;;;;;;4.80;99.90;;;;;;5033718;28;19925;-73
2024/01/25 04:46:52;;;;;;;;;;;4.70;99.90;;;;;;5033421;28;20063;-73
2024/01/25 04:49:17;;;;;;;;;;;5.20;99.90;;;;;;5034032;28;19925;-73
2024/01/25 04:51:43;;;;;;;;;;;4.70;99.90;;;;;;5033846;28;19931;-73
2024/01/25 04:54:12;;;;;;;;;;;4.70;99.90;;;;;;5020176;28;20030;-74
2024/01/25 04:56:38;;;;;;;;;;;4.70;99.90;;;;;;5033522;28;20401;-75
2024/01/25 04:59:03;;;;;;;;;;;4.60;99.90;;;;;;5032961;28;19968;-74
2024/01/25 05:01:29;;;;;;;;;;;4.70;99.90;;;;;;5034224;28;20288;-75
2024/01/25 05:03:55;;;;;;;;;;;4.80;99.90;;;;;;5033986;28;19932;-75
2024/01/25 05:06:20;;;;;;;;;;;4.60;99.90;;;;;;5032485;28;20403;-74
2024/01/25 05:08:46;;;;;;;;;;;4.60;99.90;;;;;;5026353;28;20042;-73
2024/01/25 05:11:12;;;;;;;;;;;4.70;99.90;;;;;;5013733;28;20370;-75
2024/01/25 05:13:38;;;;;;;;;;;4.70;99.90;;;;;;5024346;28;19938;-73
2024/01/25 05:16:03;;;;;;;;;;;4.70;99.90;;;;;;5014008;28;19949;-74
2024/01/25 05:18:29;;;;;;;;;;;4.70;99.90;;;;;;5020642;28;19925;-75
2024/01/25 05:20:54;;;;;;;;;;;4.60;99.90;;;;;;5033099;28;20016;-74
2024/01/25 05:23:20;;;;;;;;;;;5.00;99.90;;;;;;5033324;28;19925;-74
2024/01/25 05:25:45;;;;;;;;;;;4.70;99.90;;;;;;5034566;28;19925;-74
2024/01/25 05:28:11;;;;;;;;;;;4.70;99.90;;;;;;5030784;28;19926;-73
2024/01/25 05:30:36;;;;;;;;;;;4.70;99.90;;;;;;5023216;28;20301;-74
2024/01/25 05:33:04;;;;;;;;;;;4.70;99.90;;;;;;5032608;28;19925;-74
2024/01/25 05:35:30;;;;;;;;;;;4.60;99.90;;;;;;5032587;28;19925;-74
2024/01/25 05:37:55;;;;;;;;;;;4.60;99.90;;;;;;5017197;28;20293;-73
2024/01/25 05:40:21;;;;;;;;;;;4.60;99.90;;;;;;5012217;28;19929;-73
2024/01/25 05:42:46;;;;;;;;;;;4.90;99.90;;;;;;5013791;28;19932;-73
2024/01/25 05:45:12;;;;;;;;;;;4.60;99.90;;;;;;5013028;28;19925;-73
2024/01/25 05:47:38;;;;;;;;;;;4.60;99.90;;;;;;5012951;28;19926;-74
2024/01/25 05:50:04;;;;;;;;;;;4.60;99.90;;;;;;5012203;28;19925;-73
2024/01/25 05:52:33;;;;;;;;;;;4.60;99.90;;;;;;5024522;28;19932;-73
2024/01/25 05:54:59;;;;;;;;;;;4.70;99.90;;;;;;5032316;28;19929;-73
2024/01/25 05:57:27;;;;;;;;;;;6.30;99.90;;;;;;5031221;28;21646;-73
2024/01/25 05:59:53;;;;;;;;;;;4.70;99.90;;;;;;5033058;28;20384;-73
2024/01/25 06:02:18;;;;;;;;;;;4.70;99.90;;;;;;5031612;28;19936;-77
2024/01/25 06:04:44;;;;;;;;;;;4.70;99.90;;;;;;5033856;28;19951;-78
2024/01/25 06:07:10;;;;;;;;;;;4.60;99.90;;;;;;5027640;28;19925;-74
2024/01/25 06:09:36;;;;;;;;;;;4.90;99.90;;;;;;5037246;28;19925;-77
2024/01/25 06:12:01;;;;;;;;;;;4.60;99.90;;;;;;5031683;28;20343;-89
2024/01/25 06:14:27;;;;;;;;;;;4.50;99.90;;;;;;5032111;28;19975;-82
2024/01/25 06:16:52;;;;;;;;;;;4.50;99.90;;;;;;5031356;28;19925;-79
2024/01/25 06:19:18;;;;;;;;;;;4.50;99.90;;;;;;5027774;28;19991;-81
2024/01/25 06:21:43;;;;;;;;;;;4.50;99.90;;;;;;5023357;28;20016;-78
2024/01/25 06:24:09;;;;;;;;;;;4.50;99.90;;;;;;5011608;28;19925;-76
2024/01/25 06:26:34;;;;;;;;;;;4.80;99.90;;;;;;5012624;28;20274;-79
2024/01/25 06:29:00;;;;;;;;;;;4.40;99.90;;;;;;5012003;28;19925;-75
2024/01/25 06:31:25;;;;;;;;;;;4.40;99.90;;;;;;5027010;28;19926;-77
2024/01/25 06:33:52;;;;;;;;;;;4.40;99.90;;;;;;5031699;28;19929;-75
2024/01/25 06:36:18;;;;;;;;;;;4.30;99.90;;;;;;5028331;28;19932;-75
2024/01/25 06:38:44;;;;;;;;;;;4.40;99.90;;;;;;5015543;28;20007;-75
2024/01/25 06:41:09;;;;;;;;;;;4.30;99.90;;;;;;5009552;28;19968;-75
2024/01/25 06:43:35;;;;;;;;;;;4.10;99.90;;;;;;5010088;28;20087;-75
2024/01/25 06:46:03;;;;;;;;;;;4.30;99.90;;;;;;5021575;28;20018;-75
2024/01/25 06:48:29;;;;;;;;;;;4.20;99.90;;;;;;5029578;28;19948;-75
2024/01/25 06:50:54;;;;;;;;;;;4.30;99.90;;;;;;5028900;28;19932;-76
2024/01/25 06:53:21;;;;;;;;;;;4.30;99.90;;;;;;5018514;28;19989;-75
2024/01/25 06:55:46;;;;;;;;;;;4.30;99.90;;;;;;5010366;28;20300;-75
2024/01/25 06:58:13;;;;;;;;;;;5.00;99.90;;;;;;5010016;28;19929;-74
2024/01/25 07:00:38;;;;;;;;;;;4.30;99.90;;;;;;5009560;28;20296;-74
2024/01/25 07:03:04;;;;;;;;;;;4.20;99.90;;;;;;5015356;28;19925;-75
2024/01/25 07:05:33;;;;;;;;;;;4.20;99.90;;;;;;5029538;28;20377;-75
2024/01/25 07:07:58;;;;;;;;;;;4.20;99.90;;;;;;5031464;28;19929;-74
2024/01/25 07:10:24;;;;;;;;;;;4.20;99.90;;;;;;5031373;28;20332;-75
2024/01/25 07:12:50;;;;;;;;;;;4.10;99.90;;;;;;5029767;28;19928;-76
2024/01/25 07:15:16;;;;;;;;;;;4.10;99.90;;;;;;5020672;28;19925;-75
2024/01/25 07:17:42;;;;;;;;;;;4.10;99.90;;;;;;5031208;28;20342;-75
2024/01/25 07:20:08;;;;;;;;;;;4.20;99.90;;;;;;5030280;28;19933;-75
2024/01/25 07:22:36;;;;;;;;;;;4.10;99.90;;;;;;5031657;28;19925;-75
2024/01/25 07:25:02;;;;;;;;;;;4.20;99.90;;;;;;5031357;28;20365;-75
2024/01/25 07:27:27;;;;;;;;;;;4.20;99.90;;;;;;5013675;28;19983;-75
2024/01/25 07:29:53;;;;;;;;;;;4.20;99.90;;;;;;5011948;28;20290;-74
2024/01/25 07:32:19;;;;;;;;;;;4.20;99.90;;;;;;5011286;28;19941;-75
2024/01/25 07:34:45;;;;;;;;;;;4.10;99.90;;;;;;5011062;28;19925;-75
2024/01/25 07:37:11;;;;;;;;;;;4.20;99.90;;;;;;5011625;28;19932;-75
2024/01/25 07:39:36;;;;;;;;;;;4.20;99.90;;;;;;5011840;28;19937;-75
2024/01/25 07:42:05;;;;;;;;;;;4.10;99.90;;;;;;5021889;28;19936;-75
2024/01/25 07:44:30;;;;;;;;;;;4.20;99.90;;;;;;5031279;28;19967;-75
2024/01/25 07:46:56;;;;;;;;;;;4.20;99.90;;;;;;5031479;28;19921;-75
2024/01/25 07:49:21;;;;;;;;;;;4.20;99.90;;;;;;5030139;28;19972;-75
2024/01/25 07:51:47;;;;;;;;;;;4.30;99.90;;;;;;5020493;28;20297;-75
2024/01/25 07:54:13;;;;;;;;;;;4.30;99.90;;;;;;5011338;28;19926;-75
2024/01/25 07:56:38;;;;;;;;;;;4.30;99.90;;;;;;5010577;28;19968;-75
2024/01/25 07:59:04;;;;;;;;;;;4.40;99.90;;;;;;5011102;28;19976;-75
2024/01/25 08:01:30;;;;;;;;;;;4.40;99.90;;;;;;5015937;28;19932;-75
2024/01/25 08:03:59;;;;;;;;;;;4.50;99.90;;;;;;5014458;28;19933;-75
2024/01/25 08:06:26;;;;;;;;;;;4.50;99.90;;;;;;5015260;28;19976;-76
2024/01/25 08:08:51;;;;;;;;;;;4.50;99.90;;;;;;5014234;28;20365;-75
2024/01/25 08:11:19;;;;;;;;;;;4.60;99.90;;;;;;5020955;28;20000;-75
2024/01/25 08:13:45;;;;;;;;;;;4.60;99.90;;;;;;5034995;28;19971;-75
2024/01/25 08:16:11;;;;;;;;;;;4.60;99.90;;;;;;5033348;28;19983;-75
2024/01/25 08:18:36;;;;;;;;;;;4.70;99.90;;;;;;5034838;28;20326;-75
2024/01/25 08:21:02;;;;;;;;;;;4.70;99.90;;;;;;5030890;28;20000;-75
2024/01/25 08:23:28;;;;;;;;;;;4.80;99.90;;;;;;5025273;28;19948;-75
2024/01/25 08:25:53;;;;;;;;;;;4.80;99.90;;;;;;5014409;28;19963;-75
2024/01/25 08:28:19;;;;;;;;;;;4.80;99.90;;;;;;5014554;28;19925;-75
2024/01/25 08:30:45;;;;;;;;;;;5.40;99.90;;;;;;5013917;28;19929;-76
2024/01/25 08:33:10;;;;;;;;;;;4.90;99.90;;;;;;5014018;28;20391;-76
2024/01/25 08:35:36;;;;;;;;;;;5.00;99.90;;;;;;5014813;28;19991;-76
2024/01/25 08:38:02;;;;;;;;;;;5.30;99.90;;;;;;5033169;28;20339;-75
2024/01/25 08:40:28;;;;;;;;;;;6.00;99.90;;;;;;5034485;28;19929;-76
2024/01/25 08:42:53;;;;;;;;;;;5.10;99.90;;;;;;5034078;28;20402;-76
2024/01/25 08:45:19;;;;;;;;;;;5.00;99.90;;;;;;5033046;28;19933;-76
2024/01/25 08:47:49;;;;;;;;;;;4.90;99.90;;;;;;5034417;28;20012;-75
2024/01/25 08:50:15;;;;;;;;;;;5.30;99.90;;;;;;5033707;28;19931;-76
2024/01/25 08:52:41;;;;;;;;;;;5.00;99.90;;;;;;5016360;28;19932;-76
2024/01/25 08:55:07;;;;;;;;;;;5.20;99.90;;;;;;5013803;28;19925;-76
2024/01/25 08:57:32;;;;;;;;;;;5.30;99.90;;;;;;5014499;28;20449;-76
2024/01/25 08:59:58;;;;;;;;;;;5.90;99.90;;;;;;5013535;28;20028;-76
2024/01/25 09:02:26;;;;;;;;;;;5.90;99.90;;;;;;5014130;28;19929;-76
2024/01/25 09:04:53;;;;;;;;;;;5.90;99.90;;;;;;5013862;28;19925;-76
2024/01/25 09:07:22;;;;;;;;;;;6.10;99.90;;;;;;5013138;28;20352;-76
2024/01/25 09:09:48;;;;;;;;;;;6.20;99.90;;;;;;5020586;28;19930;-77
2024/01/25 09:12:14;;;;;;;;;;;6.20;99.90;;;;;;5022363;28;19971;-77
2024/01/25 09:14:42;;;;;;;;;;;6.20;99.90;;;;;;5025611;28;19937;-77
2024/01/25 09:17:09;;;;;;;;;;;7.20;99.90;;;;;;5031518;28;19964;-77
2024/01/25 09:19:34;;;;;;;;;;;6.30;99.90;;;;;;5018439;28;20035;-77
2024/01/25 09:22:04;;;;;;;;;;;6.60;99.90;;;;;;5012939;28;20413;-76
2024/01/25 09:24:35;;;;;;;;;;;6.80;99.90;;;;;;5012942;28;19932;-78
2024/01/25 09:27:04;;;;;;;;;;;7.00;99.90;;;;;;5012105;28;19925;-77
2024/01/25 09:29:29;;;;;;;;;;;7.10;99.90;;;;;;5026123;28;19925;-77
2024/01/25 09:31:55;;;;;;;;;;;7.30;99.90;;;;;;5012525;28;19967;-77
2024/01/25 09:34:21;;;;;;;;;;;7.40;99.90;;;;;;5016523;28;19940;-78
2024/01/25 09:36:46;;;;;;;;;;;7.50;99.90;;;;;;5012443;28;19925;-77
2024/01/25 09:39:12;;;;;;;;;;;7.50;99.90;;;;;;5012301;28;19929;-77
2024/01/25 09:41:38;;;;;;;;;;;7.50;99.90;;;;;;5011574;28;19932;-76
2024/01/25 09:44:03;;;;;;;;;;;7.60;99.90;;;;;;5012126;28;20290;-76
2024/01/25 09:46:32;;;;;;;;;;;7.70;99.90;;;;;;5018674;28;20016;-75
2024/01/25 09:48:57;;;;;;;;;;;7.60;99.90;;;;;;5011929;28;19940;-75
2024/01/25 09:51:23;;;;;;;;;;;7.50;99.90;;;;;;5011963;28;19925;-74
2024/01/25 09:53:55;;;;;;;;;;;7.50;99.90;;;;;;5012449;28;19929;-75
2024/01/25 09:56:22;;;;;;;;;;;7.50;99.90;;;;;;5011706;28;20443;-72
2024/01/25 09:58:48;;;;;;;;;;;7.50;99.90;;;;;;5013945;28;19988;-76
2024/01/25 10:01:17;;;;;;;;;;;7.50;99.90;;;;;;5023868;28;19968;-77
2024/01/25 10:03:44;;;;;;;;;;;8.10;99.90;;;;;;5013170;28;19933;-77
2024/01/25 10:06:10;;;;;;;;;;;7.70;99.90;;;;;;5012310;28;19929;-78
2024/01/25 10:08:36;;;;;;;;;;;8.40;99.90;;;;;;5012981;28;20012;-78
2024/01/25 10:11:03;;;;;;;;;;;9.20;99.90;;;;;;5016046;28;20007;-77
2024/01/25 10:13:32;;;;;;;;;;;9.90;99.90;;;;;;5012584;28;20287;-77
2024/01/25 10:16:00;;;;;;;;;;;10.80;99.90;;;;;;5019672;28;20403;-77
2024/01/25 10:18:26;;;;;;;;;;;11.80;99.90;;;;;;5013126;28;20015;-77
2024/01/25 10:20:55;;;;;;;;;;;12.70;99.90;;;;;;5012063;28;20582;-77
2024/01/25 10:23:21;;;;;;;;;;;13.60;99.90;;;;;;5010808;28;19933;-77
2024/01/25 10:25:47;;;;;;;;;;;14.00;99.90;;;;;;5012982;28;20385;-76
2024/01/25 10:28:13;;;;;;;;;;;14.40;99.90;;;;;;5018738;28;19925;-76
2024/01/25 10:30:38;;;;;;;;;;;13.90;99.90;;;;;;5016223;28;20282;-76
2024/01/25 10:33:04;;;;;;;;;;;13.60;99.90;;;;;;5012896;28;19925;-76
2024/01/25 10:35:30;;;;;;;;;;;13.90;99.90;;;;;;5014970;28;19933;-76
2024/01/25 10:37:56;;;;;;;;;;;14.00;99.90;;;;;;5012094;28;20378;-76
2024/01/25 10:40:22;;;;;;;;;;;13.20;99.90;;;;;;5015917;28;19925;-81
2024/01/25 10:42:48;;;;;;;;;;;12.60;99.90;;;;;;5026832;28;20296;-81
2024/01/25 10:45:14;;;;;;;;;;;12.40;99.90;;;;;;5016422;28;19975;-77
2024/01/25 10:47:40;;;;;;;;;;;12.30;99.90;;;;;;5019023;28;19925;-75
2024/01/25 10:50:11;;;;;;;;;;;12.30;99.90;;;;;;5014938;28;19996;-75
2024/01/25 10:52:37;;;;;;;;;;;12.90;99.90;;;;;;5013933;28;19925;-75
2024/01/25 10:55:04;;;;;;;;;;;13.10;99.90;;;;;;5011705;28;20408;-76
2024/01/25 10:57:37;;;;;;;;;;;13.70;99.90;;;;;;5024982;28;19932;-76
2024/01/25 11:00:07;;;;;;;;;;;14.60;99.90;;;;;;5011126;28;20393;-76
2024/01/25 11:02:36;;;;;;;;;;;15.30;99.90;;;;;;5019803;28;20435;-75
2024/01/25 11:05:03;;;;;;;;;;;15.50;99.90;;;;;;5010239;28;20067;-75
2024/01/25 11:07:40;;;;;;;;;;;15.10;99.90;;;;;;5010604;28;19968;-75
2024/01/25 11:10:10;;;;;;;;;;;14.50;99.90;;;;;;5011019;28;19933;-76
2024/01/25 11:12:35;;;;;;;;;;;13.80;99.90;;;;;;5010080;28;19967;-76
2024/01/25 11:15:06;;;;;;;;;;;12.80;99.90;;;;;;5020581;28;19972;-75
2024/01/25 11:17:32;;;;;;;;;;;12.10;99.90;;;;;;5027062;28;20460;-74
2024/01/25 11:20:00;;;;;;;;;;;12.00;99.90;;;;;;5012505;28;19932;-78
2024/01/25 11:22:34;;;;;;;;;;;11.70;99.90;;;;;;5015068;28;19925;-72
2024/01/25 11:24:59;;;;;;;;;;;11.50;99.90;;;;;;5013127;28;19925;-74
2024/01/25 11:27:25;;;;;;;;;;;11.00;99.90;;;;;;5010243;28;20392;-75
2024/01/25 11:29:50;;;;;;;;;;;10.60;99.90;;;;;;5010955;28;19972;-76
2024/01/25 11:32:16;;;;;;;;;;;10.50;99.90;;;;;;5010303;28;19948;-72
2024/01/25 11:34:43;;;;;;;;;;;10.20;99.90;;;;;;5019449;28;20023;-72
2024/01/25 11:37:08;;;;;;;;;;;9.80;99.90;;;;;;5019161;28;19930;-73
2024/01/25 11:39:34;;;;;;;;;;;9.80;99.90;;;;;;5021519;28;19932;-73
2024/01/25 11:42:00;;;;;;;;;;;9.70;99.90;;;;;;5015390;28;20365;-73
2024/01/25 11:44:25;;;;;;;;;;;9.80;99.90;;;;;;5032044;28;20739;-73
2024/01/25 11:46:56;;;;;;;;;;;9.50;99.90;;;;;;5039506;28;19929;-72
2024/01/25 11:49:23;;;;;;;;;;;9.90;99.90;;;;;;5025870;28;19925;-73
2024/01/25 11:51:48;;;;;;;;;;;9.20;99.90;;;;;;5035009;28;19931;-74
2024/01/25 11:54:14;;;;;;;;;;;9.40;99.90;;;;;;5032392;28;20011;-76
2024/01/25 11:57:02;;;;;;;;;;;9.80;99.90;;;;;;5034755;28;19931;-75
2024/01/25 11:59:26;;;;;;;;;;;10.20;99.90;;;;;;5033030;28;19925;-76
2024/01/25 12:01:54;;;;;;;;;;;10.90;99.90;;;;;;5031622;28;20111;-78
2024/01/25 12:04:20;;;;;;;;;;;11.40;99.90;;;;;;5034750;28;20355;-73
2024/01/25 12:06:47;;;;;;;;;;;11.60;99.90;;;;;;5034338;28;20020;-78
2024/01/25 12:09:15;;;;;;;;;;;11.70;99.90;;;;;;5033594;28;19925;-75
2024/01/25 12:11:41;;;;;;;;;;;11.80;99.90;;;;;;5027859;28;19925;-75
2024/01/25 12:14:07;;;;;;;;;;;12.30;99.90;;;;;;5014995;28;20462;-76
2024/01/25 12:16:33;;;;;;;;;;;12.70;99.90;;;;;;5014570;28;19929;-75
2024/01/25 12:18:58;;;;;;;;;;;12.70;99.90;;;;;;5016072;28;20451;-75
2024/01/25 12:21:24;;;;;;;;;;;12.70;99.90;;;;;;5027030;28;19973;-75
2024/01/25 12:23:53;;;;;;;;;;;12.60;99.90;;;;;;5014031;28;19961;-75
2024/01/25 12:26:19;;;;;;;;;;;12.10;99.90;;;;;;5014360;28;20036;-76
2024/01/25 12:28:45;;;;;;;;;;;12.10;99.90;;;;;;5013648;28;20172;-76
2024/01/25 12:31:11;;;;;;;;;;;11.50;99.90;;;;;;5018300;28;20054;-74
2024/01/25 12:33:36;;;;;;;;;;;11.00;99.90;;;;;;5021006;28;20596;-73
2024/01/25 12:36:05;;;;;;;;;;;10.90;99.90;;;;;;5022725;28;20373;-73
2024/01/25 12:38:33;;;;;;;;;;;10.50;99.90;;;;;;5016734;28;19925;-73
2024/01/25 12:40:59;;;;;;;;;;;10.20;99.90;;;;;;5028642;28;19929;-74
2024/01/25 12:43:25;;;;;;;;;;;10.50;99.90;;;;;;5025908;28;19929;-74
2024/01/25 12:45:53;;;;;;;;;;;10.00;99.90;;;;;;5015705;28;19936;-75
2024/01/25 12:48:19;;;;;;;;;;;10.20;99.90;;;;;;5020982;28;19949;-75
2024/01/25 12:50:45;;;;;;;;;;;10.70;99.90;;;;;;5028054;28;19925;-74
2024/01/25 12:53:11;;;;;;;;;;;11.40;99.90;;;;;;5022345;28;19940;-79
2024/01/25 12:55:37;;;;;;;;;;;12.40;99.90;;;;;;5028183;28;20281;-74
2024/01/25 12:58:03;;;;;;;;;;;12.80;99.90;;;;;;5020798;28;20034;-75
2024/01/25 13:00:28;;;;;;;;;;;12.90;99.90;;;;;;5011738;28;20457;-72
2024/01/25 13:02:55;;;;;;;;;;;13.30;99.90;;;;;;5014349;28;19926;-74
2024/01/25 13:05:20;;;;;;;;;;;13.40;99.90;;;;;;5012003;28;19976;-74
2024/01/25 13:07:46;;;;;;;;;;;13.50;99.90;;;;;;5014735;28;19925;-73
2024/01/25 13:10:11;;;;;;;;;;;13.30;99.90;;;;;;5018438;28;19926;-73
2024/01/25 13:12:37;;;;;;;;;;;13.00;99.90;;;;;;5015332;28;19976;-74
2024/01/25 13:15:04;;;;;;;;;;;12.70;99.90;;;;;;5018141;28;19971;-73
2024/01/25 13:17:29;;;;;;;;;;;12.60;99.90;;;;;;5030252;28;19929;-73
2024/01/25 13:19:56;;;;;;;;;;;12.60;99.90;;;;;;5029412;28;19936;-73
2024/01/25 13:22:24;;;;;;;;;;;12.20;99.90;;;;;;5017199;28;19933;-73
2024/01/25 13:24:50;;;;;;;;;;;12.10;99.90;;;;;;5013816;28;20355;-73
2024/01/25 13:27:15;;;;;;;;;;;11.40;99.90;;;;;;5029309;28;19933;-73
2024/01/25 13:29:41;;;;;;;;;;;10.60;99.90;;;;;;5027872;28;19929;-73
2024/01/25 13:32:07;;;;;;;;;;;10.50;99.90;;;;;;5031386;28;19983;-74
2024/01/25 13:34:32;;;;;;;;;;;10.10;99.90;;;;;;5031337;28;20016;-73
2024/01/25 13:36:58;;;;;;;;;;;10.40;99.90;;;;;;5022831;28;20095;-73
2024/01/25 13:39:23;;;;;;;;;;;9.70;99.90;;;;;;5011591;28;20434;-73
2024/01/25 13:41:50;;;;;;;;;;;9.60;99.90;;;;;;5031224;28;20439;-73
2024/01/25 13:44:15;;;;;;;;;;;9.60;99.90;;;;;;5031738;28;19968;-72
2024/01/25 13:46:41;;;;;;;;;;;9.30;99.90;;;;;;5031204;28;19972;-74
2024/01/25 13:49:06;;;;;;;;;;;9.70;99.90;;;;;;5031436;28;20035;-73
2024/01/25 13:51:32;;;;;;;;;;;9.20;99.90;;;;;;5025888;28;19925;-73
2024/01/25 13:53:57;;;;;;;;;;;9.00;99.90;;;;;;5011695;28;20380;-73
2024/01/25 13:56:23;;;;;;;;;;;8.90;99.90;;;;;;5026003;28;19921;-73
2024/01/25 13:58:48;;;;;;;;;;;8.60;99.90;;;;;;5032136;28;19936;-73
2024/01/25 14:01:14;;;;;;;;;;;8.70;99.90;;;;;;5030092;28;19925;-73
2024/01/25 14:03:39;;;;;;;;;;;8.50;99.90;;;;;;5032129;28;20426;-73
2024/01/25 14:06:05;;;;;;;;;;;8.40;99.90;;;;;;5029166;28;19925;-73
2024/01/25 14:08:31;;;;;;;;;;;8.40;99.90;;;;;;5011091;28;20000;-73
2024/01/25 14:10:57;;;;;;;;;;;9.20;99.90;;;;;;5015666;28;19922;-77
2024/01/25 14:13:22;;;;;;;;;;;8.30;99.90;;;;;;5014148;28;19980;-72
2024/01/25 14:15:51;;;;;;;;;;;8.90;99.90;;;;;;5046089;28;19929;-72
2024/01/25 14:18:16;;;;;;;;;;;9.00;99.90;;;;;;5011537;28;19925;-72